This is the latest recevied weather packets stored in our database for station/object W8KHW. If no packets are shown the sender has not sent any weather packets the latest 1 day(s).
| Time | Temp. | Humidity | Pressure | Rain* | Wind** | Luminosity | Snow |
|---|---|---|---|---|---|---|---|
| 1778106041 | 13.33° C | 55% | 1014.3 hPa | 0 mm | - | - | - |
| 1778103540 | 13.89° C | 53% | 1013.4 hPa | 0 mm | - | - | - |
| 1778101539 | 13.89° C | 55% | 1013.3 hPa | 0 mm | - | - | - |
| 1778100038 | 13.33° C | 55% | 1013.4 hPa | 0 mm | - | - | - |
| 1778099538 | 13.89° C | 54% | 1013.5 hPa | 0 mm | - | - | - |
| 1778097537 | 13.89° C | 52% | 1012.9 hPa | 0 mm | - | - | - |
| 1778096036 | 14.44° C | 53% | 1013 hPa | 0 mm | - | - | - |
| 1778095536 | 14.44° C | 54% | 1012.9 hPa | 0 mm | - | - | - |
| 1778095036 | 14.44° C | 53% | 1013.2 hPa | 0 mm | - | - | - |
| 1778092535 | 15.56° C | 50% | 1012.8 hPa | 0 mm | - | - | - |
| 1778091535 | 16.11° C | 51% | 1013.1 hPa | 0 mm | - | - | - |
| 1778090034 | 15.56° C | 54% | 1013.1 hPa | 0 mm | - | - | - |
| 1778089034 | 15° C | 52% | 1013.2 hPa | 0 mm | - | - | - |
| 1778088534 | 15° C | 52% | 1013.2 hPa | 0 mm | - | - | - |
| 1778086533 | 15° C | 53% | 1013.3 hPa | 0 mm | - | - | - |
| 1778086033 | 14.44° C | 57% | 1013.2 hPa | 0 mm | - | - | - |
| 1778084032 | 13.89° C | 58% | 1013.4 hPa | 0 mm | - | - | - |
| 1778082531 | 12.22° C | 65% | 1013.1 hPa | 0 mm | - | - | - |
| 1778082031 | 12.78° C | 66% | 1012.6 hPa | 0 mm | - | - | - |
| 1778080030 | 12.78° C | 69% | 1012.5 hPa | 0 mm | - | - | - |
| 1778079530 | 11.67° C | 68% | 1012.2 hPa | 0 mm | - | - | - |
| 1778079030 | 11.11° C | 69% | 1012 hPa | 0 mm | - | - | - |
| 1778076529 | 10° C | 81% | 1011.8 hPa | 0 mm | - | - | - |
| 1778076029 | 10° C | 85% | 1011.6 hPa | 0 mm | - | - | - |
| 1778074028 | 8.33° C | 95% | 1011.3 hPa | 0 mm | - | - | - |
* Rain latest hour (hover to see other rain measurements)
** Current wind speed in m/s (hover to see current wind gust speed)